Time;durP1;ratioP1;P1;durP2;ratioP2;P2;SDS_P1;SDS_P2;PMS_P1;PMS_P2;Temp;Humidity;BMP_temperature;BMP_pressure;BME280_temperature;BME280_humidity;BME280_pressure;Samples;Min_cycle;Max_cycle;Signal;HPM_P1;HPM_P2
2022/07/20 00:00:21;;;;;;;;;;;;;;;28.60;32.90;99648.31;2069049;28;20226;-64
2022/07/20 00:01:21;;;;;;;;;;;;;;;28.60;32.97;99638.06;2065495;28;19921;-63
2022/07/20 00:02:21;;;;;;;;;;;;;;;28.60;32.92;99643.59;2067874;28;19921;-63
2022/07/20 00:03:22;;;;;;;;;;;;;;;28.60;33.05;99646.38;2066332;28;20015;-63
2022/07/20 00:04:22;;;;;;;;;;;;;;;28.60;32.98;99660.25;2066337;28;19914;-63
2022/07/20 00:05:22;;;;;;;;;;;;;;;28.59;33.04;99658.56;2068844;28;19978;-63
2022/07/20 00:06:23;;;;;;;;;;;;;;;28.59;33.25;99663.22;2064841;28;19956;-63
2022/07/20 00:07:23;;;;;;;;;;;;;;;28.60;33.15;99667.72;2069005;28;19921;-63
2022/07/20 00:12:20;;;;;;;;;;;;;;;28.57;33.28;99682.88;2070270;28;19917;-65
2022/07/20 00:13:21;;;;;;;;;;;;;;;28.57;33.27;99677.34;2065668;28;20635;-65
2022/07/20 00:14:21;;;;;;;;;;;;;;;28.58;33.25;99690.13;2068233;28;19931;-63
2022/07/20 00:15:22;;;;;;;;;;;;;;;28.58;33.19;99684.56;2069291;28;19920;-63
2022/07/20 00:16:23;;;;;;;;;;;;;;;28.58;33.13;99684.56;2068255;28;20292;-63
2022/07/20 00:17:23;;;;;;;;;;;;;;;28.57;33.24;99684.81;2070176;28;19970;-63
2022/07/20 00:18:23;;;;;;;;;;;;;;;28.58;33.09;99684.56;2066596;28;19995;-63
2022/07/20 00:19:24;;;;;;;;;;;;;;;28.58;33.10;99678.19;2068328;28;20327;-63
2022/07/20 00:20:24;;;;;;;;;;;;;;;28.58;33.22;99680.94;2069364;28;20725;-63
2022/07/20 00:21:24;;;;;;;;;;;;;;;28.57;33.15;99682.88;2065337;28;19917;-64
2022/07/20 00:22:25;;;;;;;;;;;;;;;28.57;33.27;99688.44;2067378;28;19921;-64
2022/07/20 00:23:25;;;;;;;;;;;;;;;28.57;33.22;99682.88;2067996;28;19924;-63
2022/07/20 00:24:25;;;;;;;;;;;;;;;28.57;33.20;99688.44;2064737;28;19929;-64
2022/07/20 00:25:26;;;;;;;;;;;;;;;28.57;33.23;99682.03;2066099;28;19921;-63
2022/07/20 00:26:26;;;;;;;;;;;;;;;28.57;33.13;99680.09;2065840;28;20015;-63
2022/07/20 00:27:26;;;;;;;;;;;;;;;28.57;33.30;99676.50;2069672;28;20704;-63
2022/07/20 00:28:27;;;;;;;;;;;;;;;28.57;33.15;99679.25;2068861;28;20323;-64
2022/07/20 00:29:27;;;;;;;;;;;;;;;28.55;33.30;99673.94;2067953;28;19968;-63
2022/07/20 00:30:27;;;;;;;;;;;;;;;28.56;33.26;99686.72;2068856;28;19917;-64
2022/07/20 00:31:28;;;;;;;;;;;;;;;28.57;33.37;99682.03;2062717;28;20015;-64
2022/07/20 00:32:28;;;;;;;;;;;;;;;28.56;33.29;99692.25;2065718;28;19917;-64
2022/07/20 00:33:28;;;;;;;;;;;;;;;28.57;33.24;99688.44;2062825;28;19929;-63
2022/07/20 00:34:29;;;;;;;;;;;;;;;28.56;33.37;99692.25;2067983;28;19952;-64
2022/07/20 00:35:29;;;;;;;;;;;;;;;28.56;33.29;99694.19;2066506;28;19921;-64
2022/07/20 00:36:29;;;;;;;;;;;;;;;28.55;33.27;99696.13;2068676;28;19971;-64
2022/07/20 00:37:29;;;;;;;;;;;;;;;28.56;33.34;99695.03;2061059;28;19929;-64
2022/07/20 00:38:30;;;;;;;;;;;;;;;28.55;33.39;99696.13;2065776;28;20483;-64
2022/07/20 00:39:30;;;;;;;;;;;;;;;28.55;33.29;99689.72;2061491;28;19971;-64
2022/07/20 00:40:30;;;;;;;;;;;;;;;28.54;33.30;99688.88;2066274;28;19928;-64
2022/07/20 00:41:31;;;;;;;;;;;;;;;28.54;33.27;99696.31;2068645;28;20034;-63
2022/07/20 00:42:33;;;;;;;;;;;;;;;28.54;33.45;99690.78;2063990;28;19917;-63
2022/07/20 00:43:51;;;;;;;;;;;;;;;28.53;33.26;99698.25;2065653;28;19921;-64
2022/07/20 00:44:52;;;;;;;;;;;;;;;28.54;33.37;99704.63;2060884;28;20123;-63
2022/07/20 00:45:52;;;;;;;;;;;;;;;28.53;33.31;99698.25;2061854;28;19972;-63
2022/07/20 00:46:53;;;;;;;;;;;;;;;28.53;33.26;99698.25;2061218;28;20649;-63
2022/07/20 00:47:54;;;;;;;;;;;;;;;28.53;33.35;99698.25;2062238;28;19932;-63
2022/07/20 00:48:54;;;;;;;;;;;;;;;28.53;33.24;99695.47;2064863;28;19917;-63
2022/07/20 00:49:54;;;;;;;;;;;;;;;28.53;33.25;99703.78;2063487;28;20051;-64
2022/07/20 00:50:55;;;;;;;;;;;;;;;28.53;33.29;99703.78;2065060;28;19920;-63
2022/07/20 00:51:55;;;;;;;;;;;;;;;28.53;33.07;99698.25;2059240;28;20053;-64
2022/07/20 00:52:56;;;;;;;;;;;;;;;28.54;33.09;99705.50;2062890;28;19913;-64
2022/07/20 00:53:57;;;;;;;;;;;;;;;28.52;33.36;99699.34;2068386;28;20704;-64
2022/07/20 00:54:57;;;;;;;;;;;;;;;28.52;33.30;99695.72;2062299;28;19924;-64
2022/07/20 00:55:58;;;;;;;;;;;;;;;28.52;33.25;99702.09;2062593;28;19923;-64
2022/07/20 00:56:59;;;;;;;;;;;;;;;28.52;33.15;99699.34;2063651;28;19917;-63
2022/07/20 00:57:59;;;;;;;;;;;;;;;28.52;33.18;99696.56;2065973;28;19967;-64
2022/07/20 00:59:01;;;;;;;;;;;;;;;28.52;33.07;99704.88;2068767;28;19970;-64
2022/07/20 01:00:03;;;;;;;;;;;;;;;28.52;33.45;99707.66;2064689;28;19925;-63
2022/07/20 01:01:03;;;;;;;;;;;;;;;28.52;33.09;99712.34;2061880;28;20411;-63
2022/07/20 01:02:04;;;;;;;;;;;;;;;28.52;33.07;99713.19;2064173;28;20318;-63
2022/07/20 01:03:04;;;;;;;;;;;;;;;28.50;33.18;99720.88;2064079;28;19919;-63
2022/07/20 01:04:05;;;;;;;;;;;;;;;28.51;33.09;99718.94;2055334;28;20365;-63
2022/07/20 01:05:13;;;;;;;;;;;;;;;28.51;33.09;99717.03;2066814;28;19909;-64
2022/07/20 01:06:13;;;;;;;;;;;;;;;28.50;32.94;99720.88;2063857;28;20834;-64
2022/07/20 01:07:14;;;;;;;;;;;;;;;28.49;32.98;99716.38;2064812;28;20651;-64
2022/07/20 01:08:14;;;;;;;;;;;;;;;28.48;32.96;99714.69;2065033;28;19917;-64
2022/07/20 01:09:18;;;;;;;;;;;;;;;28.49;32.82;99716.38;2062182;28;19921;-64
2022/07/20 01:10:19;;;;;;;;;;;;;;;28.50;32.93;99733.91;2059706;28;20411;-63
2022/07/20 01:11:20;;;;;;;;;;;;;;;28.50;32.94;99734.75;2060349;28;20398;-63
2022/07/20 01:12:20;;;;;;;;;;;;;;;28.48;32.82;99731.34;2060646;28;19917;-64
2022/07/20 01:13:20;;;;;;;;;;;;;;;28.51;33.05;99735.59;2062878;28;19955;-64
2022/07/20 01:14:21;;;;;;;;;;;;;;;28.49;32.90;99735.78;2060798;28;19921;-64
2022/07/20 01:15:21;;;;;;;;;;;;;;;28.50;32.79;99731.13;2064706;28;19928;-64
2022/07/20 01:16:21;;;;;;;;;;;;;;;28.51;32.98;99736.44;2067294;28;19921;-63
2022/07/20 01:17:21;;;;;;;;;;;;;;;28.49;32.93;99727.47;2063029;28;20500;-63
2022/07/20 01:18:22;;;;;;;;;;;;;;;28.50;32.92;99731.13;2065787;28;19963;-64
2022/07/20 01:19:22;;;;;;;;;;;;;;;28.50;32.95;99723.66;2065000;28;20105;-63
2022/07/20 01:20:24;;;;;;;;;;;;;;;28.51;33.06;99727.28;2067023;28;19976;-63
2022/07/20 01:21:24;;;;;;;;;;;;;;;28.48;33.14;99717.47;2064966;28;19917;-63
2022/07/20 01:22:24;;;;;;;;;;;;;;;28.49;32.98;99719.16;2067993;28;19917;-64
2022/07/20 01:23:25;;;;;;;;;;;;;;;28.49;33.18;99719.16;2067316;28;20013;-64
2022/07/20 01:24:25;;;;;;;;;;;;;;;28.50;33.12;99722.81;2074249;28;20000;-64
2022/07/20 01:25:25;;;;;;;;;;;;;;;28.51;33.06;99727.28;2065541;28;19917;-63
2022/07/20 01:26:26;;;;;;;;;;;;;;;28.50;33.27;99726.44;2068748;28;19917;-64
2022/07/20 01:27:26;;;;;;;;;;;;;;;28.50;33.06;99718.09;2068717;28;19932;-63
2022/07/20 01:28:27;;;;;;;;;;;;;;;28.50;33.29;99717.25;2064750;28;19921;-63
2022/07/20 01:29:27;;;;;;;;;;;;;;;28.50;33.32;99717.25;2068687;28;19921;-63
2022/07/20 01:30:28;;;;;;;;;;;;;;;28.49;33.33;99719.16;2066209;28;19920;-64
2022/07/20 01:31:28;;;;;;;;;;;;;;;28.49;33.40;99713.63;2066229;28;19949;-63
2022/07/20 01:32:28;;;;;;;;;;;;;;;28.50;33.36;99712.56;2062464;28;19949;-64
2022/07/20 01:33:29;;;;;;;;;;;;;;;28.50;33.47;99703.41;2062690;28;20618;-63
2022/07/20 01:34:29;;;;;;;;;;;;;;;28.50;33.27;99711.72;2064411;28;19965;-64
2022/07/20 01:35:30;;;;;;;;;;;;;;;28.50;33.45;99711.72;2063432;28;19921;-63
2022/07/20 01:36:30;;;;;;;;;;;;;;;28.49;33.45;99710.84;2071871;28;19917;-63
2022/07/20 01:37:30;;;;;;;;;;;;;;;28.50;33.57;99717.25;2061307;28;20020;-63
2022/07/20 01:38:31;;;;;;;;;;;;;;;28.49;33.46;99702.53;2065754;28;20646;-63
2022/07/20 01:39:31;;;;;;;;;;;;;;;28.49;33.55;99716.38;2066894;28;20007;-63
2022/07/20 01:40:31;;;;;;;;;;;;;;;28.49;33.60;99712.78;2062513;28;20932;-63
2022/07/20 01:41:32;;;;;;;;;;;;;;;28.49;33.55;99719.16;2066237;28;19917;-63
2022/07/20 01:42:32;;;;;;;;;;;;;;;28.48;33.50;99717.47;2065040;28;19937;-63
2022/07/20 01:43:32;;;;;;;;;;;;;;;28.49;33.80;99721.94;2063960;28;19925;-63
2022/07/20 01:44:32;;;;;;;;;;;;;;;28.49;33.57;99718.31;2071738;28;20391;-63
2022/07/20 01:45:34;;;;;;;;;;;;;;;28.48;33.67;99716.63;2062971;28;19917;-63
2022/07/20 01:46:34;;;;;;;;;;;;;;;28.49;33.68;99707.22;2067246;28;19921;-63
2022/07/20 01:47:35;;;;;;;;;;;;;;;28.49;33.60;99719.16;2065669;28;20492;-63
2022/07/20 01:48:35;;;;;;;;;;;;;;;28.49;33.78;99718.31;2063231;28;20532;-63
2022/07/20 01:49:35;;;;;;;;;;;;;;;28.48;33.83;99717.47;2065982;28;20015;-63
2022/07/20 01:50:37;;;;;;;;;;;;;;;28.48;33.79;99714.69;2062246;28;19987;-63
2022/07/20 01:51:37;;;;;;;;;;;;;;;28.47;33.83;99715.78;2065765;28;19924;-63
2022/07/20 01:52:37;;;;;;;;;;;;;;;28.47;33.90;99715.78;2067671;28;19917;-63
2022/07/20 01:53:37;;;;;;;;;;;;;;;28.46;33.89;99716.84;2067196;28;19941;-64
2022/07/20 01:54:38;;;;;;;;;;;;;;;28.46;33.93;99711.28;2064512;28;19921;-62
2022/07/20 01:55:38;;;;;;;;;;;;;;;28.46;33.96;99719.63;2068648;28;19945;-63
2022/07/20 01:56:42;;;;;;;;;;;;;;;28.46;33.87;99714.06;2062819;28;19940;-63
2022/07/20 01:57:42;;;;;;;;;;;;;;;28.47;34.00;99712.13;2067229;28;20346;-63
2022/07/20 01:58:43;;;;;;;;;;;;;;;28.47;33.80;99715.78;2063996;28;19917;-63
2022/07/20 01:59:43;;;;;;;;;;;;;;;28.47;34.01;99715.78;2063439;28;20287;-63
2022/07/20 02:00:43;;;;;;;;;;;;;;;28.47;34.03;99715.78;2068527;28;19917;-63
2022/07/20 02:01:44;;;;;;;;;;;;;;;28.46;34.15;99714.06;2061233;28;19921;-63
2022/07/20 02:02:44;;;;;;;;;;;;;;;28.47;34.16;99724.09;2065259;28;19928;-63
2022/07/20 02:03:44;;;;;;;;;;;;;;;28.48;34.22;99727.72;2069854;28;19953;-63
2022/07/20 02:04:45;;;;;;;;;;;;;;;28.47;34.33;99732.41;2060426;28;20160;-63
2022/07/20 02:05:45;;;;;;;;;;;;;;;28.47;34.40;99726.88;2067161;28;19994;-63
2022/07/20 02:06:45;;;;;;;;;;;;;;;28.47;34.39;99729.66;2066117;28;20027;-63
2022/07/20 02:07:46;;;;;;;;;;;;;;;28.46;34.71;99730.69;2068481;28;19913;-63
2022/07/20 02:08:46;;;;;;;;;;;;;;;28.47;34.59;99726.88;2068023;28;19917;-63
2022/07/20 02:09:46;;;;;;;;;;;;;;;28.46;34.66;99727.94;2062197;28;19928;-63
2022/07/20 02:10:46;;;;;;;;;;;;;;;28.47;34.83;99726.88;2067777;28;20303;-63
2022/07/20 02:11:47;;;;;;;;;;;;;;;28.47;34.77;99726.88;2060969;28;20447;-63
2022/07/20 02:12:47;;;;;;;;;;;;;;;28.47;34.98;99732.41;2068546;28;20505;-63
2022/07/20 02:13:47;;;;;;;;;;;;;;;28.46;34.88;99727.94;2068994;28;19920;-63
2022/07/20 02:14:48;;;;;;;;;;;;;;;28.47;35.18;99731.53;2065889;28;19917;-63
2022/07/20 02:17:07;;;;;;;;;;;;;;;28.46;35.34;99724.31;2065105;28;19917;-64
2022/07/20 02:18:08;;;;;;;;;;;;;;;28.46;35.28;99727.94;2068449;28;19960;-63
2022/07/20 02:19:08;;;;;;;;;;;;;;;28.45;35.34;99717.91;2072277;28;20013;-63
2022/07/20 02:20:09;;;;;;;;;;;;;;;28.45;35.43;99719.81;2060266;28;19971;-64
2022/07/20 02:21:09;;;;;;;;;;;;;;;28.46;35.35;99727.09;2069605;28;20693;-63
2022/07/20 02:22:09;;;;;;;;;;;;;;;28.45;35.51;99739.22;2064191;28;19921;-63
2022/07/20 02:23:11;;;;;;;;;;;;;;;28.45;35.69;99740.09;2068118;28;19923;-63
2022/07/20 02:24:11;;;;;;;;;;;;;;;28.45;35.55;99740.09;2064849;28;20477;-63
2022/07/20 02:25:11;;;;;;;;;;;;;;;28.45;35.68;99734.56;2063770;28;20483;-63
2022/07/20 02:26:12;;;;;;;;;;;;;;;28.45;35.77;99734.56;2064321;28;20376;-63
2022/07/20 02:27:13;;;;;;;;;;;;;;;28.45;35.73;99737.34;2062518;28;19921;-63
2022/07/20 02:28:13;;;;;;;;;;;;;;;28.45;35.98;99737.34;2059889;28;19941;-63
2022/07/20 02:29:13;;;;;;;;;;;;;;;28.45;36.04;99734.56;2067177;28;19917;-63
2022/07/20 02:30:14;;;;;;;;;;;;;;;28.44;35.98;99738.34;2063964;28;20513;-63
2022/07/20 02:31:14;;;;;;;;;;;;;;;28.43;36.22;99737.50;2065967;28;19917;-63
2022/07/20 02:32:14;;;;;;;;;;;;;;;28.45;36.08;99739.22;2063758;28;20387;-63
2022/07/20 02:33:15;;;;;;;;;;;;;;;28.45;36.11;99734.56;2063138;28;20403;-63
2022/07/20 02:34:15;;;;;;;;;;;;;;;28.45;36.10;99740.09;2064556;28;20778;-63
2022/07/20 02:35:15;;;;;;;;;;;;;;;28.44;35.97;99735.56;2067894;28;20002;-63
2022/07/20 02:36:16;;;;;;;;;;;;;;;28.44;36.00;99732.81;2064776;28;19921;-63
2022/07/20 02:37:16;;;;;;;;;;;;;;;28.45;36.20;99733.69;2064400;28;20040;-63
2022/07/20 02:38:16;;;;;;;;;;;;;;;28.44;35.94;99743.91;2063140;28;19924;-63
2022/07/20 02:39:17;;;;;;;;;;;;;;;28.44;36.19;99732.81;2062105;28;19917;-63
2022/07/20 02:40:17;;;;;;;;;;;;;;;28.43;36.25;99736.66;2063022;28;19913;-63
2022/07/20 02:41:17;;;;;;;;;;;;;;;28.44;36.35;99732.81;2059420;28;20498;-63
2022/07/20 02:42:17;;;;;;;;;;;;;;;28.43;36.53;99740.28;2062229;28;19920;-63
2022/07/20 02:43:18;;;;;;;;;;;;;;;28.43;36.59;99734.72;2061713;28;19928;-63
2022/07/20 02:44:18;;;;;;;;;;;;;;;28.44;36.68;99738.34;2066396;28;20010;-63
2022/07/20 02:45:18;;;;;;;;;;;;;;;28.43;36.87;99731.97;2065102;28;19916;-63
2022/07/20 02:46:19;;;;;;;;;;;;;;;28.43;36.83;99743.06;2066190;28;20684;-63
2022/07/20 02:47:19;;;;;;;;;;;;;;;28.43;37.10;99742.22;2066633;28;19970;-63
2022/07/20 02:48:19;;;;;;;;;;;;;;;28.43;37.00;99744.97;2064810;28;19967;-63
2022/07/20 02:49:19;;;;;;;;;;;;;;;28.43;37.23;99743.06;2065717;28;19925;-63
2022/07/20 02:50:20;;;;;;;;;;;;;;;28.43;37.17;99748.59;2061744;28;19980;-62
2022/07/20 02:51:20;;;;;;;;;;;;;;;28.44;37.17;99743.91;2064442;28;19919;-63
2022/07/20 02:52:20;;;;;;;;;;;;;;;28.43;37.27;99748.59;2067587;28;19924;-63
2022/07/20 02:53:21;;;;;;;;;;;;;;;28.44;37.15;99743.91;2061665;28;19925;-64
2022/07/20 02:54:23;;;;;;;;;;;;;;;28.43;37.26;99742.22;2067046;28;19999;-63
2022/07/20 02:55:24;;;;;;;;;;;;;;;28.42;37.05;99740.53;2065869;28;20347;-64
2022/07/20 02:56:24;;;;;;;;;;;;;;;28.42;37.30;99741.38;2065081;28;20662;-64
2022/07/20 02:57:24;;;;;;;;;;;;;;;28.41;37.31;99741.56;2066935;28;19967;-63
2022/07/20 02:58:25;;;;;;;;;;;;;;;28.41;37.48;99738.81;2061758;28;20000;-63
2022/07/20 02:59:25;;;;;;;;;;;;;;;28.41;37.56;99738.81;2061826;28;19933;-63
2022/07/20 03:00:26;;;;;;;;;;;;;;;28.40;37.83;99737.09;2063160;28;19921;-63
2022/07/20 03:01:26;;;;;;;;;;;;;;;28.40;37.96;99743.50;2062990;28;19921;-63
2022/07/20 03:02:26;;;;;;;;;;;;;;;28.40;38.10;99742.66;2063686;28;19924;-63
2022/07/20 03:03:27;;;;;;;;;;;;;;;28.39;38.16;99741.81;2066958;28;20391;-63
2022/07/20 03:04:27;;;;;;;;;;;;;;;28.39;38.37;99739.03;2066155;28;19917;-63
2022/07/20 03:05:27;;;;;;;;;;;;;;;28.40;38.45;99753.75;2066461;28;19917;-63
2022/07/20 03:06:28;;;;;;;;;;;;;;;28.40;38.54;99748.19;2067605;28;19944;-64
2022/07/20 03:07:28;;;;;;;;;;;;;;;28.40;38.45;99750.97;2065765;28;19987;-64
2022/07/20 03:08:28;;;;;;;;;;;;;;;28.38;38.55;99750.34;2062343;28;19921;-64
2022/07/20 03:09:28;;;;;;;;;;;;;;;28.40;38.59;99759.28;2063779;28;19917;-63
2022/07/20 03:10:29;;;;;;;;;;;;;;;28.39;38.66;99752.91;2064138;28;19959;-64
2022/07/20 03:11:29;;;;;;;;;;;;;;;28.39;39.06;99757.56;2059432;28;19917;-64
2022/07/20 03:12:29;;;;;;;;;;;;;;;28.39;39.16;99758.44;2064031;28;20081;-64
2022/07/20 03:13:29;;;;;;;;;;;;;;;28.39;39.50;99757.56;2063087;28;19921;-63
2022/07/20 03:14:30;;;;;;;;;;;;;;;28.39;39.54;99763.09;2062080;28;20453;-64
2022/07/20 03:15:31;;;;;;;;;;;;;;;28.38;39.49;99758.66;2064118;28;20351;-63
2022/07/20 03:16:31;;;;;;;;;;;;;;;28.37;39.79;99754.16;2065982;28;20624;-64
2022/07/20 03:17:32;;;;;;;;;;;;;;;28.38;39.71;99761.41;2063510;28;19983;-63
2022/07/20 03:18:32;;;;;;;;;;;;;;;28.38;39.89;99755.88;2062765;28;19972;-63
2022/07/20 03:19:32;;;;;;;;;;;;;;;28.37;40.25;99765.25;2060438;28;19925;-63
2022/07/20 03:20:33;;;;;;;;;;;;;;;28.37;40.39;99770.78;2063466;28;19964;-64
2022/07/20 03:21:33;;;;;;;;;;;;;;;28.38;40.29;99766.97;2059145;28;19925;-64
2022/07/20 03:22:33;;;;;;;;;;;;;;;28.37;40.39;99765.25;2062379;28;19917;-64
2022/07/20 03:23:33;;;;;;;;;;;;;;;28.38;40.34;99772.50;2063551;28;20325;-64
2022/07/20 03:24:34;;;;;;;;;;;;;;;28.37;40.14;99766.13;2067387;28;20483;-63
2022/07/20 03:25:34;;;;;;;;;;;;;;;28.38;40.35;99766.97;2061761;28;20384;-64
2022/07/20 03:26:35;;;;;;;;;;;;;;;28.38;40.29;99772.50;2065969;28;20398;-64
2022/07/20 03:27:35;;;;;;;;;;;;;;;28.37;40.20;99766.13;2066243;28;19939;-64
2022/07/20 03:28:35;;;;;;;;;;;;;;;28.38;40.22;99770.59;2062495;28;19917;-64
2022/07/20 03:29:36;;;;;;;;;;;;;;;28.38;40.15;99775.28;2065325;28;19917;-64
2022/07/20 03:30:36;;;;;;;;;;;;;;;28.37;40.37;99777.22;2067665;28;20077;-63
2022/07/20 03:31:36;;;;;;;;;;;;;;;28.38;40.36;99776.13;2061721;28;20451;-64
2022/07/20 03:32:37;;;;;;;;;;;;;;;28.38;40.60;99775.28;2066926;28;19920;-64
2022/07/20 03:33:37;;;;;;;;;;;;;;;28.37;40.95;99779.09;2064125;28;19928;-64
2022/07/20 03:34:37;;;;;;;;;;;;;;;28.37;41.01;99781.88;2063990;28;20370;-64
2022/07/20 03:35:37;;;;;;;;;;;;;;;28.36;41.29;99780.19;2066049;28;20297;-64
2022/07/20 03:36:38;;;;;;;;;;;;;;;28.35;41.48;99784.88;2065443;28;20435;-63
2022/07/20 03:37:38;;;;;;;;;;;;;;;28.35;41.74;99784.03;2065026;28;20425;-63
2022/07/20 03:38:38;;;;;;;;;;;;;;;28.35;42.21;99792.34;2064038;28;20482;-64
2022/07/20 03:39:38;;;;;;;;;;;;;;;28.33;42.30;99791.72;2064464;28;20323;-64
2022/07/20 03:40:39;;;;;;;;;;;;;;;28.33;42.54;99797.25;2068010;28;19968;-64
2022/07/20 03:41:39;;;;;;;;;;;;;;;28.32;42.57;99796.41;2064653;28;19931;-63
2022/07/20 03:42:39;;;;;;;;;;;;;;;28.32;42.81;99795.53;2065849;28;19971;-64
2022/07/20 03:43:40;;;;;;;;;;;;;;;28.32;43.04;99796.41;2067507;28;19932;-64
2022/07/20 03:44:40;;;;;;;;;;;;;;;28.32;43.24;99795.53;2065166;28;19917;-63
2022/07/20 03:45:40;;;;;;;;;;;;;;;28.32;42.96;99801.97;2059117;28;20017;-64
2022/07/20 03:46:40;;;;;;;;;;;;;;;28.32;42.92;99801.97;2064749;28;19948;-64
2022/07/20 03:47:41;;;;;;;;;;;;;;;28.32;43.00;99807.50;2064223;28;19924;-64
2022/07/20 03:48:41;;;;;;;;;;;;;;;28.31;42.86;99805.78;2069077;28;19924;-63
2022/07/20 03:49:42;;;;;;;;;;;;;;;28.32;43.01;99810.28;2063998;28;19917;-64
2022/07/20 03:50:42;;;;;;;;;;;;;;;28.32;42.99;99810.28;2067066;28;20608;-64
2022/07/20 03:51:42;;;;;;;;;;;;;;;28.32;42.95;99809.41;2068920;28;20150;-64
2022/07/20 03:52:42;;;;;;;;;;;;;;;28.33;43.33;99813.91;2064502;28;20931;-63
2022/07/20 03:53:43;;;;;;;;;;;;;;;28.31;43.39;99821.56;2069307;28;19921;-63
2022/07/20 03:54:43;;;;;;;;;;;;;;;28.31;43.66;99822.41;2066482;28;19917;-63
2022/07/20 03:55:44;;;;;;;;;;;;;;;28.31;43.66;99816.88;2068117;28;19959;-63
2022/07/20 03:56:44;;;;;;;;;;;;;;;28.31;43.51;99821.56;2064978;28;19917;-63
2022/07/20 03:57:44;;;;;;;;;;;;;;;28.31;43.76;99822.41;2065227;28;20929;-63
2022/07/20 03:58:44;;;;;;;;;;;;;;;28.31;44.27;99821.56;2068776;28;20299;-64
2022/07/20 03:59:45;;;;;;;;;;;;;;;28.30;44.27;99826.28;2065821;28;19917;-63
2022/07/20 04:00:45;;;;;;;;;;;;;;;28.29;44.06;99824.53;2062275;28;20435;-64
2022/07/20 04:01:45;;;;;;;;;;;;;;;28.28;44.42;99827.56;2067531;28;19913;-63
2022/07/20 04:02:46;;;;;;;;;;;;;;;28.27;44.47;99828.59;2066260;28;19925;-64
2022/07/20 04:03:46;;;;;;;;;;;;;;;28.26;44.76;99825.00;2067259;28;19917;-63
2022/07/20 04:04:46;;;;;;;;;;;;;;;28.27;44.64;99831.38;2063655;28;19914;-63
2022/07/20 04:05:46;;;;;;;;;;;;;;;28.26;44.73;99830.53;2065489;28;19917;-63
2022/07/20 04:06:47;;;;;;;;;;;;;;;28.26;44.96;99836.06;2066203;28;20574;-63
2022/07/20 04:07:47;;;;;;;;;;;;;;;28.26;45.08;99840.78;2066444;28;20008;-63
2022/07/20 04:08:48;;;;;;;;;;;;;;;28.25;45.17;99842.69;2068016;28;20259;-64
2022/07/20 04:09:48;;;;;;;;;;;;;;;28.25;45.21;99845.47;2060195;28;19924;-63
2022/07/20 04:10:48;;;;;;;;;;;;;;;28.25;45.39;99847.38;2064978;28;20384;-63
2022/07/20 04:11:49;;;;;;;;;;;;;;;28.25;45.39;99844.59;2065173;28;20347;-64
2022/07/20 04:12:49;;;;;;;;;;;;;;;28.25;45.19;99861.22;2062280;28;19917;-64
2022/07/20 04:13:50;;;;;;;;;;;;;;;28.23;45.45;99847.59;2063295;28;19960;-64
2022/07/20 04:14:51;;;;;;;;;;;;;;;28.23;45.46;99849.53;2067654;28;20391;-63
2022/07/20 04:15:51;;;;;;;;;;;;;;;28.23;45.57;99846.75;2067354;28;19917;-64
2022/07/20 04:16:52;;;;;;;;;;;;;;;28.23;45.77;99855.06;2069732;28;20023;-64
2022/07/20 04:17:52;;;;;;;;;;;;;;;28.22;45.69;99851.44;2064838;28;19992;-64
2022/07/20 04:18:52;;;;;;;;;;;;;;;28.23;45.68;99852.31;2067134;28;19920;-63
2022/07/20 04:19:53;;;;;;;;;;;;;;;28.23;45.87;99857.84;2066663;28;20007;-64
2022/07/20 04:20:53;;;;;;;;;;;;;;;28.24;45.70;99865.06;2069546;28;19968;-64
2022/07/20 04:21:54;;;;;;;;;;;;;;;28.24;45.62;99862.31;2069707;28;20928;-63
2022/07/20 04:22:54;;;;;;;;;;;;;;;28.24;45.48;99876.16;2067348;28;19967;-63
2022/07/20 04:23:55;;;;;;;;;;;;;;;28.24;45.59;99871.47;2070964;28;20416;-62
2022/07/20 04:24:55;;;;;;;;;;;;;;;28.24;45.60;99877.00;2068439;28;19923;-63
2022/07/20 04:25:55;;;;;;;;;;;;;;;28.24;45.62;99876.16;2069707;28;20012;-63
2022/07/20 04:26:55;;;;;;;;;;;;;;;28.24;45.47;99876.16;2063006;28;19959;-63
2022/07/20 04:27:58;;;;;;;;;;;;;;;28.24;45.63;99876.16;2067104;28;19924;-64
2022/07/20 04:28:58;;;;;;;;;;;;;;;28.25;45.60;99877.84;2073519;28;19964;-63
2022/07/20 04:29:58;;;;;;;;;;;;;;;28.24;45.62;99878.94;2072832;28;19924;-63
2022/07/20 04:30:58;;;;;;;;;;;;;;;28.24;45.70;99878.94;2061486;28;19924;-64
2022/07/20 04:31:59;;;;;;;;;;;;;;;28.23;45.81;99885.56;2061721;28;19960;-64
2022/07/20 04:32:59;;;;;;;;;;;;;;;28.21;45.80;99883.84;2068329;28;19916;-63
2022/07/20 04:33:59;;;;;;;;;;;;;;;28.21;46.05;99894.06;2068598;28;20360;-63
2022/07/20 04:35:00;;;;;;;;;;;;;;;28.20;46.10;99887.69;2062736;28;19960;-64
2022/07/20 04:36:00;;;;;;;;;;;;;;;28.20;46.21;99887.69;2066501;28;19921;-63
2022/07/20 04:37:00;;;;;;;;;;;;;;;28.21;46.07;99889.38;2064709;28;19991;-63
2022/07/20 04:38:01;;;;;;;;;;;;;;;28.20;46.19;99893.22;2063878;28;19923;-63
2022/07/20 04:39:01;;;;;;;;;;;;;;;28.19;46.05;99888.72;2068179;28;19917;-64
2022/07/20 04:40:03;;;;;;;;;;;;;;;28.20;46.20;99882.16;2061339;28;19917;-63
2022/07/20 04:41:03;;;;;;;;;;;;;;;28.19;46.21;99888.72;2066933;28;19964;-63
2022/07/20 04:42:03;;;;;;;;;;;;;;;28.20;46.28;99893.22;2066380;28;19921;-63
2022/07/20 04:43:04;;;;;;;;;;;;;;;28.18;46.29;99887.03;2066039;28;19917;-64
2022/07/20 04:44:05;;;;;;;;;;;;;;;28.19;46.39;99888.72;2069013;28;19913;-63
2022/07/20 04:45:05;;;;;;;;;;;;;;;28.18;46.43;99889.81;2063978;28;19920;-63
2022/07/20 04:46:06;;;;;;;;;;;;;;;28.17;46.56;99888.13;2061649;28;20079;-64
2022/07/20 04:47:06;;;;;;;;;;;;;;;28.17;46.51;99895.56;2063362;28;20077;-63
2022/07/20 04:48:06;;;;;;;;;;;;;;;28.16;46.62;99891.94;2063502;28;19968;-64
2022/07/20 04:49:09;;;;;;;;;;;;;;;28.16;46.88;99900.25;2066398;28;19913;-64
2022/07/20 04:50:10;;;;;;;;;;;;;;;28.14;46.72;99905.16;2058830;28;20027;-63
2022/07/20 04:51:11;;;;;;;;;;;;;;;28.17;46.72;99903.88;2066531;28;19959;-64
2022/07/20 04:52:11;;;;;;;;;;;;;;;28.17;46.63;99901.09;2068537;28;19956;-64
2022/07/20 04:53:11;;;;;;;;;;;;;;;28.17;46.66;99910.28;2062154;28;19917;-63
2022/07/20 04:54:11;;;;;;;;;;;;;;;28.18;46.54;99908.38;2065056;28;19967;-63
2022/07/20 04:55:12;;;;;;;;;;;;;;;28.18;46.49;99911.13;2061021;28;19917;-63
2022/07/20 04:56:12;;;;;;;;;;;;;;;28.19;46.51;99913.69;2064389;28;19909;-64
2022/07/20 04:57:12;;;;;;;;;;;;;;;28.17;46.59;99910.28;2060975;28;20289;-64
2022/07/20 04:58:13;;;;;;;;;;;;;;;28.17;46.50;99896.44;2061389;28;20091;-63
2022/07/20 04:59:13;;;;;;;;;;;;;;;28.19;46.48;99910.91;2066553;28;20400;-64
2022/07/20 05:00:14;;;;;;;;;;;;;;;28.19;46.51;99912.81;2067896;28;20296;-64
2022/07/20 05:01:14;;;;;;;;;;;;;;;28.18;46.51;99909.22;2062843;28;19924;-64
2022/07/20 05:02:15;;;;;;;;;;;;;;;28.19;46.58;99916.44;2068824;28;19917;-63
2022/07/20 05:03:15;;;;;;;;;;;;;;;28.18;46.40;99917.53;2062526;28;19935;-63
2022/07/20 05:04:16;;;;;;;;;;;;;;;28.18;46.36;99923.06;2066483;28;19921;-63
2022/07/20 05:05:16;;;;;;;;;;;;;;;28.19;46.44;99923.91;2066947;28;19944;-63
2022/07/20 05:06:17;;;;;;;;;;;;;;;28.19;46.39;99921.13;2064163;28;19917;-63
2022/07/20 05:07:17;;;;;;;;;;;;;;;28.18;46.42;99920.31;2067187;28;19913;-64
2022/07/20 05:08:17;;;;;;;;;;;;;;;28.19;46.48;99919.22;2066409;28;20022;-63
2022/07/20 05:09:17;;;;;;;;;;;;;;;28.19;46.46;99935.84;2063678;28;19910;-65
2022/07/20 05:10:18;;;;;;;;;;;;;;;28.17;46.52;99931.59;2061350;28;19921;-65
2022/07/20 05:11:18;;;;;;;;;;;;;;;28.18;46.58;99936.94;2059694;28;19921;-66
2022/07/20 05:12:18;;;;;;;;;;;;;;;28.17;46.75;99932.47;2062605;28;19943;-65
2022/07/20 05:13:19;;;;;;;;;;;;;;;28.16;46.56;99939.06;2066937;28;20214;-66
2022/07/20 05:14:19;;;;;;;;;;;;;;;28.17;46.69;99943.53;2068698;28;19917;-65
2022/07/20 05:15:19;;;;;;;;;;;;;;;28.16;46.65;99943.75;2062936;28;19915;-65
2022/07/20 05:16:19;;;;;;;;;;;;;;;28.16;46.92;99952.91;2066065;28;20325;-65
2022/07/20 05:17:20;;;;;;;;;;;;;;;28.16;46.71;99947.38;2064415;28;20677;-65
2022/07/20 05:18:20;;;;;;;;;;;;;;;28.16;46.88;99952.91;2064473;28;20719;-65
2022/07/20 05:19:20;;;;;;;;;;;;;;;28.17;46.72;99954.63;2066718;28;19991;-65
2022/07/20 05:20:21;;;;;;;;;;;;;;;28.16;46.99;99952.91;2063261;28;19921;-65